Aeroporto :
LOGIN :

Iscrizione | Disclaimer

   EN    FR    IT 

 










Sommario :    VFR   VFR Marginale   IFR   IFR Intensivo   IFR Molto Intensivo
Visibilità : 
Base nubi : 
>= 8 km
>= 3000ft
5 / 8 km
1000 / 3000 ft
1500m / 5 km
500 / 1000 ft
800 / 1500m
200 / 500 ft
< 800m
< 200 ft
Simboli :   Temporali  Nebbia  Neve Forte  Precipitazioni Forti  Vento > 20 kt
SIGMETs :   Varie  Temporali  Ghiacco  Turbolenza  Onda orograficha  Ceneri Vulcaniche






- Altitudine del aeroporto : 479 ft
- Codice IATA : DOL


LFRG - Deauville

ULTIMO METAR :
  • 250630Z AUTO 25013KT 9999 SCT034 BKN049 07/05 Q1008 TEMPO 4000 SHRA BKN015TCU BECMG 26015G30KT

METARs OBSOLETI :
  • 250600Z AUTO 26013KT 9999 FEW014 SCT029 BKN034 06/05 Q1008 TEMPO 4000 SHRA BKN015TCU BECMG 26015G30KT
  • 250530Z AUTO 25014KT 220V280 9999 FEW014 SCT039 OVC046 07/05 Q1008 TEMPO 4000 SHRA BKN015TCU BECMG 26015G30KT
  • 250500Z AUTO 26014KT 230V290 9999 BKN012 BKN017 BKN027 07/05 Q1008
  • 250430Z AUTO 25011KT 9999 BKN014 BKN020 OVC038 07/06 Q1008
  • 250400Z AUTO 27012KT 9999 BKN014 BKN026 OVC036 07/06 Q1009

TAF TAF LFRG
Valido dal 25 a 06 ore il 25 a 15 ore UTC


250500Z 2506/2515 26010KT 9999 BKN030
TEMPO 2506/2511 4000 SHRA BKN015TCU
BECMG 2506/2508 26015G30KT
TEMPO 2511/2515 26020G40KT 3000 SHRAGS BKN020CB
PROB40
TEMPO 2513/2515 2000 TSRAGS BKN015CB
ATIS : +33 2 31 65 65 36



MetMap, La meteo Aeronautica in un colpo d'occhio ! - Copyright ORBIFLY Dicembre 2007 - Disclaimer

ORBIFLY MET'MAP TEAM :

Programmazione e sviluppo : Alexandra Zaïnal
Concezione : Baudouin d'Aumeries
Aiuto per la programmazione : Marc-Olivier Méhu
Supporto tecnico e logistico : Manuel Goepfert
Aiuto per la traduzione : Arnaldo La Scala

Contatto : metmap@orbifly.com




FONTI E CREDITI :

   NOAA